sensor_id;sensor_type;location;lat;lon;timestamp;temperature;humidity
1570;DHT22;778;50.120;8.698;2022-11-14T00:01:33;7.00;99.90
1570;DHT22;778;50.120;8.698;2022-11-14T00:04:22;7.00;99.90
1570;DHT22;778;50.120;8.698;2022-11-14T00:07:14;7.00;99.90
1570;DHT22;778;50.120;8.698;2022-11-14T00:10:02;7.00;99.90
1570;DHT22;778;50.120;8.698;2022-11-14T00:12:50;7.00;99.90
1570;DHT22;778;50.120;8.698;2022-11-14T00:15:37;6.90;99.90
1570;DHT22;778;50.120;8.698;2022-11-14T00:18:24;6.80;99.90
1570;DHT22;778;50.120;8.698;2022-11-14T00:21:13;6.80;99.90
1570;DHT22;778;50.120;8.698;2022-11-14T00:23:59;6.80;99.90
1570;DHT22;778;50.120;8.698;2022-11-14T00:26:46;6.80;99.90
1570;DHT22;778;50.120;8.698;2022-11-14T00:29:34;6.80;99.90
1570;DHT22;778;50.120;8.698;2022-11-14T00:32:20;6.80;99.90
1570;DHT22;778;50.120;8.698;2022-11-14T00:35:08;6.80;99.90
1570;DHT22;778;50.120;8.698;2022-11-14T00:37:57;6.70;99.90
1570;DHT22;778;50.120;8.698;2022-11-14T00:40:44;6.70;99.90
1570;DHT22;778;50.120;8.698;2022-11-14T00:43:31;6.70;99.90
1570;DHT22;778;50.120;8.698;2022-11-14T00:46:18;6.70;99.90
1570;DHT22;778;50.120;8.698;2022-11-14T00:49:05;6.70;99.90
1570;DHT22;778;50.120;8.698;2022-11-14T00:51:52;6.70;99.90
1570;DHT22;778;50.120;8.698;2022-11-14T00:54:40;6.70;99.90
1570;DHT22;778;50.120;8.698;2022-11-14T00:57:27;6.60;99.90
1570;DHT22;778;50.120;8.698;2022-11-14T01:00:14;6.60;99.90
1570;DHT22;778;50.120;8.698;2022-11-14T01:03:02;6.60;99.90
1570;DHT22;778;50.120;8.698;2022-11-14T01:05:50;6.60;99.90
1570;DHT22;778;50.120;8.698;2022-11-14T01:08:37;6.60;99.90
1570;DHT22;778;50.120;8.698;2022-11-14T01:11:25;6.60;99.90
1570;DHT22;778;50.120;8.698;2022-11-14T01:14:12;6.60;99.90
1570;DHT22;778;50.120;8.698;2022-11-14T01:16:59;6.60;99.90
1570;DHT22;778;50.120;8.698;2022-11-14T01:19:46;6.60;99.90
1570;DHT22;778;50.120;8.698;2022-11-14T01:22:33;6.50;99.90
1570;DHT22;778;50.120;8.698;2022-11-14T01:25:20;6.50;99.90
1570;DHT22;778;50.120;8.698;2022-11-14T01:28:11;6.50;99.90
1570;DHT22;778;50.120;8.698;2022-11-14T01:31:07;6.50;99.90
1570;DHT22;778;50.120;8.698;2022-11-14T01:33:55;6.50;99.90
1570;DHT22;778;50.120;8.698;2022-11-14T01:36:42;6.50;99.90
1570;DHT22;778;50.120;8.698;2022-11-14T01:39:29;6.50;99.90
1570;DHT22;778;50.120;8.698;2022-11-14T01:42:16;6.50;99.90
1570;DHT22;778;50.120;8.698;2022-11-14T01:48:41;6.50;99.90
1570;DHT22;778;50.120;8.698;2022-11-14T01:51:33;6.50;99.90
1570;DHT22;778;50.120;8.698;2022-11-14T01:54:29;6.40;99.90
1570;DHT22;778;50.120;8.698;2022-11-14T01:57:20;6.40;99.90
1570;DHT22;778;50.120;8.698;2022-11-14T02:00:10;6.40;99.90
1570;DHT22;778;50.120;8.698;2022-11-14T02:03:00;6.40;99.90
1570;DHT22;778;50.120;8.698;2022-11-14T02:05:48;6.50;99.90
1570;DHT22;778;50.120;8.698;2022-11-14T02:08:36;6.40;99.90
1570;DHT22;778;50.120;8.698;2022-11-14T02:11:22;6.40;99.90
1570;DHT22;778;50.120;8.698;2022-11-14T02:14:10;6.40;99.90
1570;DHT22;778;50.120;8.698;2022-11-14T02:16:56;6.40;99.90
1570;DHT22;778;50.120;8.698;2022-11-14T02:20:13;6.30;99.90
1570;DHT22;778;50.120;8.698;2022-11-14T02:23:02;6.30;99.90
1570;DHT22;778;50.120;8.698;2022-11-14T02:25:49;7.20;99.90
1570;DHT22;778;50.120;8.698;2022-11-14T02:28:36;7.60;99.90
1570;DHT22;778;50.120;8.698;2022-11-14T02:31:23;7.80;99.90
1570;DHT22;778;50.120;8.698;2022-11-14T02:34:10;7.40;99.90
1570;DHT22;778;50.120;8.698;2022-11-14T02:36:59;7.00;99.90
1570;DHT22;778;50.120;8.698;2022-11-14T02:39:46;6.70;99.90
1570;DHT22;778;50.120;8.698;2022-11-14T02:42:33;6.50;99.90
1570;DHT22;778;50.120;8.698;2022-11-14T02:45:20;6.40;99.90
1570;DHT22;778;50.120;8.698;2022-11-14T02:48:08;6.30;99.90
1570;DHT22;778;50.120;8.698;2022-11-14T02:50:55;6.30;99.90
1570;DHT22;778;50.120;8.698;2022-11-14T02:53:43;6.20;99.90
1570;DHT22;778;50.120;8.698;2022-11-14T02:56:30;6.10;99.90
1570;DHT22;778;50.120;8.698;2022-11-14T02:59:17;6.00;99.90
1570;DHT22;778;50.120;8.698;2022-11-14T03:02:04;5.90;99.90
1570;DHT22;778;50.120;8.698;2022-11-14T03:04:52;5.90;99.90
1570;DHT22;778;50.120;8.698;2022-11-14T03:07:39;5.80;99.90
1570;DHT22;778;50.120;8.698;2022-11-14T03:10:27;5.80;99.90
1570;DHT22;778;50.120;8.698;2022-11-14T03:13:14;5.80;99.90
1570;DHT22;778;50.120;8.698;2022-11-14T03:16:04;5.80;99.90
1570;DHT22;778;50.120;8.698;2022-11-14T03:18:52;5.80;99.90
1570;DHT22;778;50.120;8.698;2022-11-14T03:21:39;5.80;99.90
1570;DHT22;778;50.120;8.698;2022-11-14T03:24:26;5.80;99.90
1570;DHT22;778;50.120;8.698;2022-11-14T03:27:14;5.80;99.90
1570;DHT22;778;50.120;8.698;2022-11-14T03:30:01;5.80;99.90
1570;DHT22;778;50.120;8.698;2022-11-14T03:32:48;5.80;99.90
1570;DHT22;778;50.120;8.698;2022-11-14T03:35:35;5.80;99.90
1570;DHT22;778;50.120;8.698;2022-11-14T03:38:22;5.80;99.90
1570;DHT22;778;50.120;8.698;2022-11-14T03:41:09;5.70;99.90
1570;DHT22;778;50.120;8.698;2022-11-14T03:43:57;5.70;99.90
1570;DHT22;778;50.120;8.698;2022-11-14T03:46:44;5.70;99.90
1570;DHT22;778;50.120;8.698;2022-11-14T03:49:31;5.70;99.90
1570;DHT22;778;50.120;8.698;2022-11-14T03:52:18;5.80;99.90
1570;DHT22;778;50.120;8.698;2022-11-14T03:55:06;5.80;99.90
1570;DHT22;778;50.120;8.698;2022-11-14T03:57:53;5.80;99.90
1570;DHT22;778;50.120;8.698;2022-11-14T04:00:41;5.70;99.90
1570;DHT22;778;50.120;8.698;2022-11-14T04:03:29;5.70;99.90
1570;DHT22;778;50.120;8.698;2022-11-14T04:06:16;5.70;99.90
1570;DHT22;778;50.120;8.698;2022-11-14T04:09:03;5.70;99.90
1570;DHT22;778;50.120;8.698;2022-11-14T04:11:50;5.60;99.90
1570;DHT22;778;50.120;8.698;2022-11-14T04:14:37;5.60;99.90
1570;DHT22;778;50.120;8.698;2022-11-14T04:17:26;5.60;99.90
1570;DHT22;778;50.120;8.698;2022-11-14T04:20:13;5.60;99.90
1570;DHT22;778;50.120;8.698;2022-11-14T04:23:01;5.50;99.90
1570;DHT22;778;50.120;8.698;2022-11-14T04:25:48;5.50;99.90
1570;DHT22;778;50.120;8.698;2022-11-14T04:28:35;5.40;99.90
1570;DHT22;778;50.120;8.698;2022-11-14T04:31:21;5.40;99.90
1570;DHT22;778;50.120;8.698;2022-11-14T04:34:10;5.40;99.90
1570;DHT22;778;50.120;8.698;2022-11-14T04:36:57;5.50;99.90
1570;DHT22;778;50.120;8.698;2022-11-14T04:39:44;5.50;99.90
1570;DHT22;778;50.120;8.698;2022-11-14T04:42:31;5.40;99.90
1570;DHT22;778;50.120;8.698;2022-11-14T04:45:18;5.40;99.90
1570;DHT22;778;50.120;8.698;2022-11-14T04:48:05;5.40;99.90
1570;DHT22;778;50.120;8.698;2022-11-14T04:50:53;5.40;99.90
1570;DHT22;778;50.120;8.698;2022-11-14T04:53:40;5.40;99.90
1570;DHT22;778;50.120;8.698;2022-11-14T04:56:27;5.40;99.90
1570;DHT22;778;50.120;8.698;2022-11-14T04:59:14;5.40;99.90
1570;DHT22;778;50.120;8.698;2022-11-14T05:02:05;5.40;99.90
1570;DHT22;778;50.120;8.698;2022-11-14T05:04:52;5.50;99.90
1570;DHT22;778;50.120;8.698;2022-11-14T05:07:41;5.50;99.90
1570;DHT22;778;50.120;8.698;2022-11-14T05:10:27;5.60;99.90
1570;DHT22;778;50.120;8.698;2022-11-14T05:13:14;5.70;99.90
1570;DHT22;778;50.120;8.698;2022-11-14T05:16:01;5.70;99.90
1570;DHT22;778;50.120;8.698;2022-11-14T05:18:48;5.70;99.90
1570;DHT22;778;50.120;8.698;2022-11-14T05:21:35;5.70;99.90
1570;DHT22;778;50.120;8.698;2022-11-14T05:24:23;5.70;99.90
1570;DHT22;778;50.120;8.698;2022-11-14T05:27:11;5.80;99.90
1570;DHT22;778;50.120;8.698;2022-11-14T05:29:58;5.80;99.90
1570;DHT22;778;50.120;8.698;2022-11-14T05:32:45;5.90;99.90
1570;DHT22;778;50.120;8.698;2022-11-14T05:35:32;5.90;99.90
1570;DHT22;778;50.120;8.698;2022-11-14T05:38:19;5.90;99.90
1570;DHT22;778;50.120;8.698;2022-11-14T05:41:10;5.90;99.90
1570;DHT22;778;50.120;8.698;2022-11-14T05:43:58;5.80;99.90
1570;DHT22;778;50.120;8.698;2022-11-14T05:46:45;5.80;99.90
1570;DHT22;778;50.120;8.698;2022-11-14T05:49:32;5.80;99.90
1570;DHT22;778;50.120;8.698;2022-11-14T05:52:19;5.80;99.90
1570;DHT22;778;50.120;8.698;2022-11-14T05:55:07;5.80;99.90
1570;DHT22;778;50.120;8.698;2022-11-14T05:57:58;5.70;99.90
1570;DHT22;778;50.120;8.698;2022-11-14T06:00:45;5.70;99.90
1570;DHT22;778;50.120;8.698;2022-11-14T06:03:39;5.70;99.90
1570;DHT22;778;50.120;8.698;2022-11-14T06:06:27;5.70;99.90
1570;DHT22;778;50.120;8.698;2022-11-14T06:09:15;5.70;99.90
1570;DHT22;778;50.120;8.698;2022-11-14T06:12:02;5.70;99.90
1570;DHT22;778;50.120;8.698;2022-11-14T06:14:53;5.70;99.90
1570;DHT22;778;50.120;8.698;2022-11-14T06:17:40;5.70;99.90
1570;DHT22;778;50.120;8.698;2022-11-14T06:20:27;5.80;99.90
1570;DHT22;778;50.120;8.698;2022-11-14T06:23:14;5.90;99.90
1570;DHT22;778;50.120;8.698;2022-11-14T06:26:14;5.90;99.90
1570;DHT22;778;50.120;8.698;2022-11-14T06:29:05;5.90;99.90
1570;DHT22;778;50.120;8.698;2022-11-14T06:31:54;5.90;99.90
1570;DHT22;778;50.120;8.698;2022-11-14T06:34:41;5.90;99.90
1570;DHT22;778;50.120;8.698;2022-11-14T06:37:28;5.90;99.90
1570;DHT22;778;50.120;8.698;2022-11-14T06:40:18;6.00;99.90
1570;DHT22;778;50.120;8.698;2022-11-14T06:43:05;6.00;99.90
1570;DHT22;778;50.120;8.698;2022-11-14T06:45:53;6.00;99.90
1570;DHT22;778;50.120;8.698;2022-11-14T06:48:42;6.00;99.90
1570;DHT22;778;50.120;8.698;2022-11-14T06:51:29;6.00;99.90
1570;DHT22;778;50.120;8.698;2022-11-14T06:54:16;6.00;99.90
1570;DHT22;778;50.120;8.698;2022-11-14T06:57:04;6.10;99.90
1570;DHT22;778;50.120;8.698;2022-11-14T06:59:51;6.20;99.90
1570;DHT22;778;50.120;8.698;2022-11-14T07:02:38;6.30;99.90
1570;DHT22;778;50.120;8.698;2022-11-14T07:05:26;6.30;99.90
1570;DHT22;778;50.120;8.698;2022-11-14T07:08:13;6.30;99.90
1570;DHT22;778;50.120;8.698;2022-11-14T07:11:08;6.40;99.90
1570;DHT22;778;50.120;8.698;2022-11-14T07:13:58;6.40;99.90
1570;DHT22;778;50.120;8.698;2022-11-14T07:16:46;6.30;99.90
1570;DHT22;778;50.120;8.698;2022-11-14T07:19:33;6.30;99.90
1570;DHT22;778;50.120;8.698;2022-11-14T07:22:21;6.30;99.90
1570;DHT22;778;50.120;8.698;2022-11-14T07:25:08;6.30;99.90
1570;DHT22;778;50.120;8.698;2022-11-14T07:27:56;6.30;99.90
1570;DHT22;778;50.120;8.698;2022-11-14T07:30:43;6.50;99.90
1570;DHT22;778;50.120;8.698;2022-11-14T07:33:31;6.40;99.90
1570;DHT22;778;50.120;8.698;2022-11-14T07:36:19;6.40;99.90
1570;DHT22;778;50.120;8.698;2022-11-14T07:39:08;6.40;99.90
1570;DHT22;778;50.120;8.698;2022-11-14T07:41:55;6.40;99.90
1570;DHT22;778;50.120;8.698;2022-11-14T07:44:42;6.30;99.90
1570;DHT22;778;50.120;8.698;2022-11-14T07:47:29;6.40;99.90
1570;DHT22;778;50.120;8.698;2022-11-14T07:50:17;6.40;99.90
1570;DHT22;778;50.120;8.698;2022-11-14T07:53:05;6.40;99.90
1570;DHT22;778;50.120;8.698;2022-11-14T07:55:53;6.40;99.90
1570;DHT22;778;50.120;8.698;2022-11-14T07:58:41;6.40;99.90
1570;DHT22;778;50.120;8.698;2022-11-14T08:01:28;6.40;99.90
1570;DHT22;778;50.120;8.698;2022-11-14T08:04:15;6.50;99.90
1570;DHT22;778;50.120;8.698;2022-11-14T08:07:02;6.40;99.90
1570;DHT22;778;50.120;8.698;2022-11-14T08:09:50;6.40;99.90
1570;DHT22;778;50.120;8.698;2022-11-14T08:12:39;6.30;99.90
1570;DHT22;778;50.120;8.698;2022-11-14T08:15:26;6.30;99.90
1570;DHT22;778;50.120;8.698;2022-11-14T08:18:13;6.30;99.90
1570;DHT22;778;50.120;8.698;2022-11-14T08:21:03;6.40;99.90
1570;DHT22;778;50.120;8.698;2022-11-14T08:23:49;6.40;99.90
1570;DHT22;778;50.120;8.698;2022-11-14T08:26:36;6.40;99.90
1570;DHT22;778;50.120;8.698;2022-11-14T08:29:25;6.30;99.90
1570;DHT22;778;50.120;8.698;2022-11-14T08:32:12;6.40;99.90
1570;DHT22;778;50.120;8.698;2022-11-14T08:35:00;6.40;99.90
1570;DHT22;778;50.120;8.698;2022-11-14T08:37:47;6.40;99.90
1570;DHT22;778;50.120;8.698;2022-11-14T08:40:34;6.40;99.90
1570;DHT22;778;50.120;8.698;2022-11-14T08:43:21;6.40;99.90
1570;DHT22;778;50.120;8.698;2022-11-14T08:46:10;6.40;99.90
1570;DHT22;778;50.120;8.698;2022-11-14T08:48:57;6.50;99.90
1570;DHT22;778;50.120;8.698;2022-11-14T08:51:44;6.50;99.90
1570;DHT22;778;50.120;8.698;2022-11-14T08:54:31;6.60;99.90
1570;DHT22;778;50.120;8.698;2022-11-14T08:57:18;6.60;99.90
1570;DHT22;778;50.120;8.698;2022-11-14T09:00:06;6.50;99.90
1570;DHT22;778;50.120;8.698;2022-11-14T09:02:55;6.50;99.90
1570;DHT22;778;50.120;8.698;2022-11-14T09:05:43;6.60;99.90
1570;DHT22;778;50.120;8.698;2022-11-14T09:08:30;6.60;99.90
1570;DHT22;778;50.120;8.698;2022-11-14T09:11:17;6.70;99.90
1570;DHT22;778;50.120;8.698;2022-11-14T09:14:04;6.60;99.90
1570;DHT22;778;50.120;8.698;2022-11-14T09:16:51;6.60;99.90
1570;DHT22;778;50.120;8.698;2022-11-14T09:19:40;6.60;99.90
1570;DHT22;778;50.120;8.698;2022-11-14T09:22:26;6.60;99.90
1570;DHT22;778;50.120;8.698;2022-11-14T09:25:13;6.80;99.90
1570;DHT22;778;50.120;8.698;2022-11-14T09:28:04;6.90;99.90
1570;DHT22;778;50.120;8.698;2022-11-14T09:30:51;7.00;99.90
1570;DHT22;778;50.120;8.698;2022-11-14T09:33:39;7.00;99.90
1570;DHT22;778;50.120;8.698;2022-11-14T09:36:27;7.00;99.90
1570;DHT22;778;50.120;8.698;2022-11-14T09:39:14;7.10;99.90
1570;DHT22;778;50.120;8.698;2022-11-14T09:42:15;7.10;99.90
1570;DHT22;778;50.120;8.698;2022-11-14T09:45:11;7.20;99.90
1570;DHT22;778;50.120;8.698;2022-11-14T09:48:04;7.30;99.90
1570;DHT22;778;50.120;8.698;2022-11-14T09:51:04;7.10;99.90
1570;DHT22;778;50.120;8.698;2022-11-14T09:53:58;7.20;99.90
1570;DHT22;778;50.120;8.698;2022-11-14T09:56:51;7.30;99.90
1570;DHT22;778;50.120;8.698;2022-11-14T09:59:38;7.30;99.90
1570;DHT22;778;50.120;8.698;2022-11-14T10:02:38;7.40;99.90
1570;DHT22;778;50.120;8.698;2022-11-14T10:05:40;7.60;99.90
1570;DHT22;778;50.120;8.698;2022-11-14T10:08:46;8.10;99.90
1570;DHT22;778;50.120;8.698;2022-11-14T10:11:43;8.60;99.90
1570;DHT22;778;50.120;8.698;2022-11-14T10:14:56;8.50;99.90
1570;DHT22;778;50.120;8.698;2022-11-14T10:18:06;8.50;99.90
1570;DHT22;778;50.120;8.698;2022-11-14T10:21:08;8.80;99.90
1570;DHT22;778;50.120;8.698;2022-11-14T10:24:08;8.90;99.90
1570;DHT22;778;50.120;8.698;2022-11-14T10:27:09;8.90;99.90
1570;DHT22;778;50.120;8.698;2022-11-14T10:30:08;9.30;99.90
1570;DHT22;778;50.120;8.698;2022-11-14T10:33:15;9.70;99.90
1570;DHT22;778;50.120;8.698;2022-11-14T10:36:16;10.20;99.90
1570;DHT22;778;50.120;8.698;2022-11-14T10:39:12;10.40;99.90
1570;DHT22;778;50.120;8.698;2022-11-14T10:42:08;10.20;99.90
1570;DHT22;778;50.120;8.698;2022-11-14T10:45:02;10.10;99.90
1570;DHT22;778;50.120;8.698;2022-11-14T10:47:55;9.90;99.90
1570;DHT22;778;50.120;8.698;2022-11-14T10:50:47;9.60;99.90
1570;DHT22;778;50.120;8.698;2022-11-14T10:53:44;9.60;99.90
1570;DHT22;778;50.120;8.698;2022-11-14T10:56:45;9.50;99.90
1570;DHT22;778;50.120;8.698;2022-11-14T10:59:34;9.40;99.90
1570;DHT22;778;50.120;8.698;2022-11-14T11:02:22;9.30;99.90
1570;DHT22;778;50.120;8.698;2022-11-14T11:05:14;9.30;99.90
1570;DHT22;778;50.120;8.698;2022-11-14T11:08:02;9.30;99.90
1570;DHT22;778;50.120;8.698;2022-11-14T11:11:28;9.50;99.90
1570;DHT22;778;50.120;8.698;2022-11-14T11:14:18;9.60;99.90
1570;DHT22;778;50.120;8.698;2022-11-14T11:17:24;9.70;99.90
1570;DHT22;778;50.120;8.698;2022-11-14T11:20:33;9.80;99.90
1570;DHT22;778;50.120;8.698;2022-11-14T11:23:24;9.90;99.90
1570;DHT22;778;50.120;8.698;2022-11-14T11:26:20;10.00;99.90
1570;DHT22;778;50.120;8.698;2022-11-14T11:29:15;10.20;99.90
1570;DHT22;778;50.120;8.698;2022-11-14T11:32:03;10.40;99.90
1570;DHT22;778;50.120;8.698;2022-11-14T11:34:51;10.50;99.90
1570;DHT22;778;50.120;8.698;2022-11-14T11:37:43;10.50;99.90
1570;DHT22;778;50.120;8.698;2022-11-14T11:40:31;10.50;99.90
1570;DHT22;778;50.120;8.698;2022-11-14T11:43:26;10.40;99.90
1570;DHT22;778;50.120;8.698;2022-11-14T11:46:29;10.40;99.90
1570;DHT22;778;50.120;8.698;2022-11-14T11:49:39;10.60;99.90
1570;DHT22;778;50.120;8.698;2022-11-14T11:52:31;10.50;99.90
1570;DHT22;778;50.120;8.698;2022-11-14T11:55:22;10.60;99.90
1570;DHT22;778;50.120;8.698;2022-11-14T11:58:15;10.60;99.90
1570;DHT22;778;50.120;8.698;2022-11-14T12:01:09;10.60;99.90
1570;DHT22;778;50.120;8.698;2022-11-14T12:03:57;10.40;99.90
1570;DHT22;778;50.120;8.698;2022-11-14T12:06:49;10.40;99.90
1570;DHT22;778;50.120;8.698;2022-11-14T12:09:43;10.50;99.90
1570;DHT22;778;50.120;8.698;2022-11-14T12:13:05;10.70;99.90
1570;DHT22;778;50.120;8.698;2022-11-14T12:16:35;10.90;99.90
1570;DHT22;778;50.120;8.698;2022-11-14T12:26:35;11.50;99.90
1570;DHT22;778;50.120;8.698;2022-11-14T12:29:55;11.60;99.90
1570;DHT22;778;50.120;8.698;2022-11-14T12:33:03;11.50;99.90
1570;DHT22;778;50.120;8.698;2022-11-14T12:35:56;11.50;99.90
1570;DHT22;778;50.120;8.698;2022-11-14T12:38:48;11.50;99.90
1570;DHT22;778;50.120;8.698;2022-11-14T12:41:40;11.50;99.90
1570;DHT22;778;50.120;8.698;2022-11-14T12:44:36;11.30;99.90
1570;DHT22;778;50.120;8.698;2022-11-14T12:47:25;11.10;99.90
1570;DHT22;778;50.120;8.698;2022-11-14T12:50:30;10.90;99.90
1570;DHT22;778;50.120;8.698;2022-11-14T12:53:43;10.80;99.90
1570;DHT22;778;50.120;8.698;2022-11-14T12:56:57;10.80;99.90
1570;DHT22;778;50.120;8.698;2022-11-14T12:59:51;10.80;99.90
1570;DHT22;778;50.120;8.698;2022-11-14T13:06:19;10.70;99.90
1570;DHT22;778;50.120;8.698;2022-11-14T13:09:29;10.80;99.90
1570;DHT22;778;50.120;8.698;2022-11-14T13:12:28;10.80;99.90
1570;DHT22;778;50.120;8.698;2022-11-14T13:15:49;10.80;99.90
1570;DHT22;778;50.120;8.698;2022-11-14T13:18:59;10.80;99.90
1570;DHT22;778;50.120;8.698;2022-11-14T13:25:26;10.60;99.90
1570;DHT22;778;50.120;8.698;2022-11-14T13:28:45;10.60;99.90
1570;DHT22;778;50.120;8.698;2022-11-14T13:31:50;10.60;99.90
1570;DHT22;778;50.120;8.698;2022-11-14T13:34:41;10.60;99.90
1570;DHT22;778;50.120;8.698;2022-11-14T13:37:45;10.60;99.90
1570;DHT22;778;50.120;8.698;2022-11-14T13:40:50;10.40;99.90
1570;DHT22;778;50.120;8.698;2022-11-14T13:43:55;10.20;99.90
1570;DHT22;778;50.120;8.698;2022-11-14T13:50:10;10.20;99.90
1570;DHT22;778;50.120;8.698;2022-11-14T13:52:58;10.20;99.90
1570;DHT22;778;50.120;8.698;2022-11-14T13:55:54;10.20;99.90
1570;DHT22;778;50.120;8.698;2022-11-14T13:58:59;10.20;99.90
1570;DHT22;778;50.120;8.698;2022-11-14T14:02:22;10.20;99.90
1570;DHT22;778;50.120;8.698;2022-11-14T14:05:25;10.20;99.90
1570;DHT22;778;50.120;8.698;2022-11-14T14:08:23;10.20;99.90
1570;DHT22;778;50.120;8.698;2022-11-14T14:11:31;10.20;99.90
1570;DHT22;778;50.120;8.698;2022-11-14T14:14:48;10.30;99.90
1570;DHT22;778;50.120;8.698;2022-11-14T14:17:57;10.30;99.90
1570;DHT22;778;50.120;8.698;2022-11-14T14:20:57;10.30;99.90
1570;DHT22;778;50.120;8.698;2022-11-14T14:23:52;10.30;99.90
1570;DHT22;778;50.120;8.698;2022-11-14T14:26:57;10.30;99.90
1570;DHT22;778;50.120;8.698;2022-11-14T14:29:53;10.30;99.90
1570;DHT22;778;50.120;8.698;2022-11-14T14:33:01;10.40;99.90
1570;DHT22;778;50.120;8.698;2022-11-14T14:35:58;10.40;99.90
1570;DHT22;778;50.120;8.698;2022-11-14T14:38:45;10.40;99.90
1570;DHT22;778;50.120;8.698;2022-11-14T14:41:33;10.50;99.90
1570;DHT22;778;50.120;8.698;2022-11-14T14:44:24;10.50;99.90
1570;DHT22;778;50.120;8.698;2022-11-14T14:47:31;10.50;99.90
1570;DHT22;778;50.120;8.698;2022-11-14T14:50:21;10.50;99.90
1570;DHT22;778;50.120;8.698;2022-11-14T14:53:18;10.50;99.90
1570;DHT22;778;50.120;8.698;2022-11-14T14:56:17;10.60;99.90
1570;DHT22;778;50.120;8.698;2022-11-14T14:59:15;10.60;99.90
1570;DHT22;778;50.120;8.698;2022-11-14T15:02:07;10.60;99.90
1570;DHT22;778;50.120;8.698;2022-11-14T15:04:59;10.60;99.90
1570;DHT22;778;50.120;8.698;2022-11-14T15:07:47;10.60;99.90
1570;DHT22;778;50.120;8.698;2022-11-14T15:10:35;10.60;99.90
1570;DHT22;778;50.120;8.698;2022-11-14T15:13:23;10.60;99.90
1570;DHT22;778;50.120;8.698;2022-11-14T15:16:11;10.60;99.90
1570;DHT22;778;50.120;8.698;2022-11-14T15:18:59;10.60;99.90
1570;DHT22;778;50.120;8.698;2022-11-14T15:22:01;10.60;99.90
1570;DHT22;778;50.120;8.698;2022-11-14T15:25:15;10.60;99.90
1570;DHT22;778;50.120;8.698;2022-11-14T15:28:13;10.60;99.90
1570;DHT22;778;50.120;8.698;2022-11-14T15:31:03;10.70;99.90
1570;DHT22;778;50.120;8.698;2022-11-14T15:34:02;10.60;99.90
1570;DHT22;778;50.120;8.698;2022-11-14T15:37:22;10.70;99.90
1570;DHT22;778;50.120;8.698;2022-11-14T15:40:15;10.70;99.90
1570;DHT22;778;50.120;8.698;2022-11-14T15:43:34;10.70;99.90
1570;DHT22;778;50.120;8.698;2022-11-14T15:46:36;10.70;99.90
1570;DHT22;778;50.120;8.698;2022-11-14T15:49:26;10.70;99.90
1570;DHT22;778;50.120;8.698;2022-11-14T15:52:19;10.70;99.90
1570;DHT22;778;50.120;8.698;2022-11-14T15:55:15;10.70;99.90
1570;DHT22;778;50.120;8.698;2022-11-14T15:58:02;10.80;99.90
1570;DHT22;778;50.120;8.698;2022-11-14T16:01:14;10.80;99.90
1570;DHT22;778;50.120;8.698;2022-11-14T16:04:04;10.80;99.90
1570;DHT22;778;50.120;8.698;2022-11-14T16:06:51;10.80;99.90
1570;DHT22;778;50.120;8.698;2022-11-14T16:09:38;10.80;99.90
1570;DHT22;778;50.120;8.698;2022-11-14T16:12:27;10.80;99.90
1570;DHT22;778;50.120;8.698;2022-11-14T16:15:14;10.80;99.90
1570;DHT22;778;50.120;8.698;2022-11-14T16:18:03;10.80;99.90
1570;DHT22;778;50.120;8.698;2022-11-14T16:20:54;10.80;99.90
1570;DHT22;778;50.120;8.698;2022-11-14T16:23:43;10.80;99.90
1570;DHT22;778;50.120;8.698;2022-11-14T16:26:31;10.80;99.90
1570;DHT22;778;50.120;8.698;2022-11-14T16:29:19;10.80;99.90
1570;DHT22;778;50.120;8.698;2022-11-14T16:32:08;10.80;99.90
1570;DHT22;778;50.120;8.698;2022-11-14T16:34:56;10.70;99.90
1570;DHT22;778;50.120;8.698;2022-11-14T16:37:43;10.80;99.90
1570;DHT22;778;50.120;8.698;2022-11-14T16:40:30;10.80;99.90
1570;DHT22;778;50.120;8.698;2022-11-14T16:43:17;10.80;99.90
1570;DHT22;778;50.120;8.698;2022-11-14T16:46:06;10.80;99.90
1570;DHT22;778;50.120;8.698;2022-11-14T16:48:54;10.80;99.90
1570;DHT22;778;50.120;8.698;2022-11-14T16:51:41;10.70;99.90
1570;DHT22;778;50.120;8.698;2022-11-14T16:54:34;10.70;99.90
1570;DHT22;778;50.120;8.698;2022-11-14T16:57:21;10.70;99.90
1570;DHT22;778;50.120;8.698;2022-11-14T17:00:10;10.70;99.90
1570;DHT22;778;50.120;8.698;2022-11-14T17:03:00;10.70;99.90
1570;DHT22;778;50.120;8.698;2022-11-14T17:05:48;10.70;99.90
1570;DHT22;778;50.120;8.698;2022-11-14T17:08:37;10.70;99.90
1570;DHT22;778;50.120;8.698;2022-11-14T17:11:25;10.70;99.90
1570;DHT22;778;50.120;8.698;2022-11-14T17:14:13;10.70;99.90
1570;DHT22;778;50.120;8.698;2022-11-14T17:17:00;10.70;99.90
1570;DHT22;778;50.120;8.698;2022-11-14T17:19:49;10.80;99.90
1570;DHT22;778;50.120;8.698;2022-11-14T17:22:36;10.70;99.90
1570;DHT22;778;50.120;8.698;2022-11-14T17:25:23;10.70;99.90
1570;DHT22;778;50.120;8.698;2022-11-14T17:28:11;10.70;99.90
1570;DHT22;778;50.120;8.698;2022-11-14T17:30:59;10.80;99.90
1570;DHT22;778;50.120;8.698;2022-11-14T17:33:50;10.80;99.90
1570;DHT22;778;50.120;8.698;2022-11-14T17:36:38;10.80;99.90
1570;DHT22;778;50.120;8.698;2022-11-14T17:39:25;10.80;99.90
1570;DHT22;778;50.120;8.698;2022-11-14T17:42:12;10.80;99.90
1570;DHT22;778;50.120;8.698;2022-11-14T17:44:59;10.80;99.90
1570;DHT22;778;50.120;8.698;2022-11-14T17:47:46;10.80;99.90
1570;DHT22;778;50.120;8.698;2022-11-14T17:50:37;10.80;99.90
1570;DHT22;778;50.120;8.698;2022-11-14T17:53:26;10.80;99.90
1570;DHT22;778;50.120;8.698;2022-11-14T17:56:16;10.80;99.90
1570;DHT22;778;50.120;8.698;2022-11-14T17:59:05;10.80;99.90
1570;DHT22;778;50.120;8.698;2022-11-14T18:01:52;10.80;99.90
1570;DHT22;778;50.120;8.698;2022-11-14T18:04:44;10.80;99.90
1570;DHT22;778;50.120;8.698;2022-11-14T18:07:32;10.80;99.90
1570;DHT22;778;50.120;8.698;2022-11-14T18:10:21;10.90;99.90
1570;DHT22;778;50.120;8.698;2022-11-14T18:13:09;10.90;99.90
1570;DHT22;778;50.120;8.698;2022-11-14T18:15:59;10.90;99.90
1570;DHT22;778;50.120;8.698;2022-11-14T18:18:47;10.90;99.90
1570;DHT22;778;50.120;8.698;2022-11-14T18:21:36;11.00;99.90
1570;DHT22;778;50.120;8.698;2022-11-14T18:24:46;10.90;99.90
1570;DHT22;778;50.120;8.698;2022-11-14T18:27:34;11.00;99.90
1570;DHT22;778;50.120;8.698;2022-11-14T18:30:21;11.00;99.90
1570;DHT22;778;50.120;8.698;2022-11-14T18:33:28;11.00;99.90
1570;DHT22;778;50.120;8.698;2022-11-14T18:36:15;11.00;99.90
1570;DHT22;778;50.120;8.698;2022-11-14T18:39:03;11.00;99.90
1570;DHT22;778;50.120;8.698;2022-11-14T18:41:50;11.10;99.90
1570;DHT22;778;50.120;8.698;2022-11-14T18:44:38;11.10;99.90
1570;DHT22;778;50.120;8.698;2022-11-14T18:47:27;11.10;99.90
1570;DHT22;778;50.120;8.698;2022-11-14T18:50:14;11.10;99.90
1570;DHT22;778;50.120;8.698;2022-11-14T18:53:01;11.10;99.90
1570;DHT22;778;50.120;8.698;2022-11-14T18:55:48;11.10;99.90
1570;DHT22;778;50.120;8.698;2022-11-14T18:58:38;11.10;99.90
1570;DHT22;778;50.120;8.698;2022-11-14T19:01:27;11.20;99.90
1570;DHT22;778;50.120;8.698;2022-11-14T19:04:16;11.20;99.90
1570;DHT22;778;50.120;8.698;2022-11-14T19:07:04;11.20;99.90
1570;DHT22;778;50.120;8.698;2022-11-14T19:09:51;11.20;99.90
1570;DHT22;778;50.120;8.698;2022-11-14T19:12:38;11.20;99.90
1570;DHT22;778;50.120;8.698;2022-11-14T19:15:26;11.20;99.90
1570;DHT22;778;50.120;8.698;2022-11-14T19:18:15;11.30;99.90
1570;DHT22;778;50.120;8.698;2022-11-14T19:21:03;11.30;99.90
1570;DHT22;778;50.120;8.698;2022-11-14T19:23:51;11.30;99.90
1570;DHT22;778;50.120;8.698;2022-11-14T19:26:39;11.30;99.90
1570;DHT22;778;50.120;8.698;2022-11-14T19:29:26;11.40;99.90